Macomb, IL

10:25 AM CDT on September 01, 2014 (GMT -0500)
WIU Harry Mussatto Golf Course | Change Station
CLOSE
Current Station
Personal Weather Station
Location: Macomb, IL
Elevation: 712 ft
Nearby Weather Stations

Elev 712 ft 40.48 °N, 90.69 °W | Updated 40 seconds ago

Mostly Cloudy
Mostly Cloudy
73.3 °F
Feels Like 74 °F
N
14.0
Wind Variable Wind from WNW
Gusts 19.0 mph

Today
High -- | Low -- °F
--% Chance of Precip.
Yesterday
High -- | Low -- °F
Precip. -- in
6:30 AM 7:34 PM
Waxing Crescent, 41% visible
Pressure 29.83 in
Visibility 10.0 miles
Clouds Mostly Cloudy 1700 ft
Heat Index 74 °F
Dew Point 66 °F
Humidity 78%
Rainfall 0.00 in
Snow Depth Not available.
UV 3 out of 12
Pollen 5.60 out of 12
Air Quality Not available.
Flu Activity Not available.
METAR KMQB 011515Z AUTO 26006KT 10SM BKN017 22/19 A2983 RMK AO2 T02240187

More Conditions Fewer Conditions

Pressure 29.83 in
Visibility 10.0 miles
Clouds Mostly Cloudy 1700 ft
Heat Index 74 °F
Dew Point 66 °F
Humidity 78%
Rainfall 0.00 in
Snow Depth Not available.
UV 3 out of 12
Pollen 5.60 out of 12
Air Quality Not available.
Flu Activity Not available.
METAR KMQB 011515Z AUTO 26006KT 10SM BKN017 22/19 A2983 RMK AO2 T02240187

More Conditions Fewer Conditions

10-Day Weather Forecast

Almanac

Astronomy

Sep. 01, 2014 Rise Set
Actual Time 6:30 AM CDT 7:34 PM CDT
Civil Twilight 6:02 AM CDT 8:02 PM CDT
Nautical Twilight 5:28 AM CDT 8:35 PM CDT
Astronomical Twilight 4:53 AM CDT 9:10 PM CDT
Moon 1:17 PM CDT 11:34 PM CDT
Length of Visible Light 14h 00m
Length of Day
13h 04m
Tomorrow will be 2m 35s shorter.
Waxing Crescent, 41% of the Moon is Illuminated
Today
Waxing Crescent
Sep 2
First Quarter
Sep 8
Full
Sep 15
Last Quarter
Sep 24
New

Today's Extremes

State Highs State Lows

Community

WunderPhotos

Upload Photos

1,749,273 photos uploaded!

Nearby

Snow Depth

Station Depth Elevation
No new snow has been reported.

Earthquake Activity

City Distance Mag. Time & Date
No recent earthquake activity has been reported nearby.
Minimum magnitude displayed is 2.5.

Coastal Water Temperatures

Place Temperature
No Stations Reporting

Nearby Weather Stations